Time;durP1;ratioP1;P1;durP2;ratioP2;P2;SDS_P1;SDS_P2;PMS_P1;PMS_P2;Temp;Humidity;BMP_temperature;BMP_pressure;BME280_temperature;BME280_humidity;BME280_pressure;Samples;Min_cycle;Max_cycle;Signal;HPM_P1;HPM_P2
2022/11/19 00:00:42;;;;;;;4.82;3.33;;;8.00;99.90;;;;;;5079013;28;20536;-78
2022/11/19 00:03:07;;;;;;;5.93;3.10;;;8.00;99.90;;;;;;5078763;28;20042;-78
2022/11/19 00:05:38;;;;;;;6.65;4.05;;;7.90;99.90;;;;;;5075158;28;20446;-79
2022/11/19 00:08:04;;;;;;;4.00;2.75;;;7.90;99.90;;;;;;5089078;28;20059;-78
2022/11/19 00:10:32;;;;;;;5.75;3.35;;;8.00;99.90;;;;;;5095473;28;20024;-77
2022/11/19 00:12:57;;;;;;;5.20;3.22;;;8.00;99.90;;;;;;5086971;28;20031;-78
2022/11/19 00:15:23;;;;;;;5.88;3.50;;;8.00;99.90;;;;;;5095090;28;20564;-77
2022/11/19 00:17:49;;;;;;;4.80;3.58;;;8.00;99.90;;;;;;5083828;28;20021;-77
2022/11/19 00:20:16;;;;;;;6.25;3.38;;;7.90;99.90;;;;;;5079073;28;20384;-77
2022/11/19 00:22:43;;;;;;;6.05;3.47;;;7.90;99.90;;;;;;5079190;28;20028;-77
2022/11/19 00:25:09;;;;;;;4.78;2.80;;;7.90;99.90;;;;;;5079198;28;20016;-78
2022/11/19 00:27:35;;;;;;;6.07;3.70;;;7.90;99.90;;;;;;5084873;28;20032;-79
2022/11/19 00:30:01;;;;;;;4.50;2.95;;;7.80;99.90;;;;;;5097170;28;20032;-79
2022/11/19 00:32:27;;;;;;;6.20;3.83;;;7.70;99.90;;;;;;5079166;28;20543;-78
2022/11/19 00:34:52;;;;;;;5.68;3.30;;;7.60;99.90;;;;;;5083349;28;20052;-78
2022/11/19 00:37:18;;;;;;;5.72;3.50;;;7.60;99.90;;;;;;5082814;28;20032;-77
2022/11/19 00:39:44;;;;;;;5.65;2.72;;;7.70;99.90;;;;;;5083908;28;20023;-76
2022/11/19 00:42:09;;;;;;;5.50;2.95;;;7.70;99.90;;;;;;5077266;28;20111;-76
2022/11/19 00:44:35;;;;;;;6.13;3.03;;;7.70;99.90;;;;;;5101193;28;20042;-76
2022/11/19 00:47:01;;;;;;;5.47;2.55;;;7.70;99.90;;;;;;5101188;28;20081;-76
2022/11/19 00:49:26;;;;;;;5.15;2.75;;;7.80;99.90;;;;;;5093723;28;20548;-76
2022/11/19 00:51:52;;;;;;;3.70;2.33;;;7.80;99.90;;;;;;5088989;28;20036;-76
2022/11/19 00:54:18;;;;;;;4.20;2.30;;;7.70;99.90;;;;;;5087591;28;20012;-77
2022/11/19 00:56:43;;;;;;;5.63;2.13;;;7.70;99.90;;;;;;5100733;28;20540;-76
2022/11/19 00:59:09;;;;;;;3.58;1.70;;;7.80;99.90;;;;;;5100930;28;20051;-77
2022/11/19 01:01:35;;;;;;;4.53;2.28;;;7.80;99.90;;;;;;5100532;28;20070;-77
2022/11/19 01:04:00;;;;;;;3.50;2.03;;;7.80;99.90;;;;;;5082833;28;20027;-78
2022/11/19 01:06:27;;;;;;;2.65;2.03;;;7.80;99.90;;;;;;5069373;28;20028;-78
2022/11/19 01:08:53;;;;;;;2.53;1.63;;;7.80;99.90;;;;;;5082111;28;20024;-78
2022/11/19 01:11:24;;;;;;;4.20;1.90;;;7.80;99.90;;;;;;5082596;28;20392;-77
2022/11/19 01:13:51;;;;;;;3.65;1.90;;;7.80;99.90;;;;;;5082587;28;20495;-78
2022/11/19 01:16:23;;;;;;;3.90;1.58;;;7.90;99.90;;;;;;5081857;28;20024;-78
2022/11/19 01:18:49;;;;;;;2.95;1.65;;;7.90;99.90;;;;;;5087735;28;20090;-78
2022/11/19 01:21:17;;;;;;;3.60;1.67;;;7.90;99.90;;;;;;5094945;28;20024;-77
2022/11/19 01:23:43;;;;;;;2.70;1.90;;;8.00;99.90;;;;;;5100215;28;20051;-77
2022/11/19 01:26:10;;;;;;;3.63;1.98;;;8.00;99.90;;;;;;5099037;28;20032;-78
2022/11/19 01:28:36;;;;;;;2.15;1.60;;;7.90;99.90;;;;;;5089890;28;20498;-77
2022/11/19 01:31:27;;;;;;;4.07;1.88;;;7.90;99.90;;;;;;5082278;28;20055;-82
2022/11/19 01:33:56;;;;;;;3.35;1.83;;;7.80;99.90;;;;;;5081757;28;20028;-79
2022/11/19 01:36:25;;;;;;;2.42;1.75;;;7.70;99.90;;;;;;5082214;28;20036;-77
2022/11/19 01:38:51;;;;;;;3.53;1.80;;;7.70;99.90;;;;;;5071883;28;20059;-77
2022/11/19 01:41:26;;;;;;;3.65;2.25;;;7.70;99.90;;;;;;5087965;28;20187;-80
2022/11/19 01:43:55;;;;;;;3.25;1.85;;;7.50;99.90;;;;;;5099285;28;20054;-77
2022/11/19 01:46:23;;;;;;;3.97;1.65;;;7.40;99.90;;;;;;5099275;28;20028;-77
2022/11/19 01:48:54;;;;;;;2.63;1.42;;;7.50;99.90;;;;;;5083126;28;20040;-79
2022/11/19 01:51:30;;;;;;;2.85;1.65;;;7.50;99.90;;;;;;5108293;28;20053;-80
2022/11/19 01:54:04;;;;;;;3.25;1.75;;;7.60;99.90;;;;;;5081355;28;20020;-78
2022/11/19 01:56:30;;;;;;;3.92;1.55;;;7.60;99.90;;;;;;5081875;28;20446;-77
2022/11/19 01:59:04;;;;;;;3.38;1.55;;;7.70;99.90;;;;;;5099562;28;20031;-79
2022/11/19 02:01:31;;;;;;;2.90;1.52;;;7.70;99.90;;;;;;5099732;28;20488;-80
2022/11/19 02:04:00;;;;;;;2.80;1.45;;;7.70;99.90;;;;;;5081722;28;20016;-80
2022/11/19 02:06:28;;;;;;;3.05;1.63;;;7.70;99.90;;;;;;5081695;28;20048;-80
2022/11/19 02:08:54;;;;;;;3.88;1.52;;;7.60;99.90;;;;;;5119808;28;20034;-80
2022/11/19 02:11:20;;;;;;;2.42;1.65;;;7.50;99.90;;;;;;5119845;28;20036;-80
2022/11/19 02:13:52;;;;;;;3.20;1.70;;;7.50;99.90;;;;;;5101536;28;20027;-80
2022/11/19 02:16:38;;;;;;;3.50;1.83;;;7.40;99.90;;;;;;5120097;28;20035;-80
2022/11/19 02:19:42;;;;;;;2.15;1.70;;;7.40;99.90;;;;;;5119765;28;20023;-80
2022/11/19 02:22:23;;;;;;;2.10;1.30;;;7.40;99.90;;;;;;5089687;28;20103;-79
2022/11/19 02:25:08;;;;;;;4.05;1.80;;;7.40;99.90;;;;;;5117291;28;20026;-79
2022/11/19 02:27:56;;;;;;;3.28;1.73;;;7.30;99.90;;;;;;5088343;28;20024;-79
2022/11/19 02:30:22;;;;;;;2.50;1.60;;;7.40;99.90;;;;;;5101553;28;20024;-79
2022/11/19 02:33:07;;;;;;;3.25;1.50;;;7.40;99.90;;;;;;5101387;28;20038;-79
2022/11/19 02:35:48;;;;;;;1.90;1.15;;;7.40;99.90;;;;;;5101293;28;20030;-80
2022/11/19 02:38:40;;;;;;;2.92;1.40;;;7.50;99.90;;;;;;5093269;28;20024;-79
2022/11/19 02:41:34;;;;;;;2.00;1.23;;;7.50;99.90;;;;;;5080964;28;20017;-81
2022/11/19 02:47:12;;;;;;;1.80;1.00;;;7.50;99.90;;;;;;5098850;28;19927;-82
2022/11/19 02:49:43;;;;;;;2.28;1.10;;;7.40;99.90;;;;;;5098647;28;20040;-80
2022/11/19 02:52:10;;;;;;;2.95;1.40;;;7.40;99.90;;;;;;5107141;28;20102;-81
2022/11/19 02:54:35;;;;;;;3.17;1.48;;;7.40;99.90;;;;;;5098494;28;20024;-80
2022/11/19 02:57:02;;;;;;;3.47;1.30;;;7.30;99.90;;;;;;5079824;28;20024;-81
2022/11/19 03:05:05;;;;;;;2.33;1.40;;;7.20;99.90;;;;;;5098537;28;20142;-77
2022/11/19 03:07:31;;;;;;;2.58;1.50;;;7.20;99.90;;;;;;5106916;28;20430;-80
2022/11/19 03:10:01;;;;;;;2.08;0.98;;;7.30;99.90;;;;;;5118619;28;20020;-77
2022/11/19 03:12:39;;;;;;;3.33;1.20;;;7.30;99.90;;;;;;5118797;28;20027;-80
2022/11/19 03:18:13;;;;;;;2.20;1.10;;;7.50;99.90;;;;;;5118872;28;20065;-78
2022/11/19 03:20:43;;;;;;;1.13;0.82;;;7.50;99.90;;;;;;5100535;28;20081;-78
2022/11/19 03:23:14;;;;;;;2.88;1.38;;;7.40;99.90;;;;;;5107919;28;20030;-78
2022/11/19 03:25:50;;;;;;;2.05;1.20;;;7.40;99.90;;;;;;5100349;28;20082;-82
2022/11/19 03:28:20;;;;;;;1.70;1.10;;;7.20;99.90;;;;;;5105660;28;20081;-81
2022/11/19 03:30:48;;;;;;;2.83;1.05;;;7.20;99.90;;;;;;5118325;28;20019;-80
2022/11/19 03:33:17;;;;;;;2.28;1.10;;;7.20;99.90;;;;;;5118392;28;20028;-80
2022/11/19 03:35:47;;;;;;;2.58;1.17;;;7.20;99.90;;;;;;5118103;28;20099;-80
2022/11/19 03:38:22;;;;;;;1.55;0.82;;;7.30;99.90;;;;;;5113618;28;20069;-80
2022/11/19 03:40:49;;;;;;;2.30;1.13;;;7.30;99.90;;;;;;5098068;28;20020;-79
2022/11/19 03:43:19;;;;;;;1.52;1.02;;;7.30;99.90;;;;;;5079919;28;20027;-81
2022/11/19 03:45:47;;;;;;;2.65;0.95;;;7.30;99.90;;;;;;5079624;28;20026;-81
2022/11/19 03:48:15;;;;;;;3.22;1.20;;;7.30;99.90;;;;;;5079831;28;20028;-81
2022/11/19 03:50:51;;;;;;;2.60;1.27;;;7.30;99.90;;;;;;5098159;28;20401;-81
2022/11/19 03:53:18;;;;;;;1.90;1.00;;;7.20;99.90;;;;;;5100775;28;20496;-81
2022/11/19 03:55:58;;;;;;;2.22;1.20;;;7.30;99.90;;;;;;5097461;28;20028;-81
2022/11/19 03:58:25;;;;;;;2.60;1.40;;;7.20;99.90;;;;;;5097786;28;20094;-81
2022/11/19 04:00:51;;;;;;;3.67;1.20;;;7.20;99.90;;;;;;5079530;28;20476;-81
2022/11/19 04:03:17;;;;;;;2.33;1.13;;;7.20;99.90;;;;;;5097661;28;20020;-78
2022/11/19 04:05:43;;;;;;;2.03;0.98;;;7.20;99.90;;;;;;5097688;28;20400;-77
2022/11/19 04:08:08;;;;;;;2.67;1.20;;;7.20;99.90;;;;;;5092344;28;20030;-77
2022/11/19 04:10:34;;;;;;;1.85;0.95;;;7.10;99.90;;;;;;5099689;28;20468;-77
2022/11/19 04:13:00;;;;;;;1.73;1.00;;;7.10;99.90;;;;;;5099482;28;20031;-78
2022/11/19 04:15:25;;;;;;;1.85;1.08;;;7.10;99.90;;;;;;5117854;28;20107;-78
2022/11/19 04:17:51;;;;;;;2.20;1.08;;;7.10;99.90;;;;;;5099747;28;20080;-77
2022/11/19 04:20:17;;;;;;;2.88;1.02;;;7.10;99.90;;;;;;5117815;28;20644;-78
2022/11/19 04:22:42;;;;;;;1.45;0.93;;;7.10;99.90;;;;;;5116496;28;20499;-80
2022/11/19 04:25:08;;;;;;;2.08;1.15;;;7.10;99.90;;;;;;5103762;28;20012;-80
2022/11/19 04:27:34;;;;;;;2.15;1.23;;;7.10;99.90;;;;;;5086313;28;20028;-80
2022/11/19 04:30:00;;;;;;;2.05;1.30;;;7.00;99.90;;;;;;5085266;28;20111;-80
2022/11/19 04:32:26;;;;;;;2.08;1.20;;;7.00;99.90;;;;;;5099328;28;20028;-79
2022/11/19 04:34:51;;;;;;;1.67;1.15;;;6.90;99.90;;;;;;5099346;28;20031;-79
2022/11/19 04:37:17;;;;;;;1.27;0.90;;;7.00;99.90;;;;;;5077846;28;20503;-78
2022/11/19 04:39:43;;;;;;;2.25;1.20;;;7.00;99.90;;;;;;5066664;28;20024;-78
2022/11/19 04:42:08;;;;;;;1.85;1.13;;;7.00;99.90;;;;;;5078228;28;20492;-79
2022/11/19 04:44:34;;;;;;;1.92;0.98;;;7.00;99.90;;;;;;5096330;28;20056;-78
2022/11/19 04:46:59;;;;;;;1.77;1.10;;;6.80;99.90;;;;;;5096627;28;20032;-78
2022/11/19 04:49:25;;;;;;;2.20;1.30;;;6.80;99.90;;;;;;5095766;28;20081;-77
2022/11/19 04:51:51;;;;;;;1.55;0.95;;;6.80;99.90;;;;;;5105808;28;20036;-78
2022/11/19 04:54:17;;;;;;;2.17;1.10;;;6.80;99.90;;;;;;5065619;28;20058;-79
2022/11/19 04:56:43;;;;;;;1.58;0.80;;;6.90;99.90;;;;;;5096913;28;20035;-79
2022/11/19 04:59:09;;;;;;;2.13;1.02;;;6.90;99.90;;;;;;5078759;28;20016;-79
2022/11/19 05:01:34;;;;;;;1.90;1.20;;;6.90;99.90;;;;;;5078265;28;20408;-79
2022/11/19 05:04:00;;;;;;;2.20;1.25;;;6.80;99.90;;;;;;5079085;28;20016;-79
2022/11/19 05:06:26;;;;;;;1.70;0.90;;;6.80;99.90;;;;;;5096848;28;20020;-79
2022/11/19 05:08:51;;;;;;;1.20;0.88;;;6.80;99.90;;;;;;5098849;28;20074;-79
2022/11/19 05:11:17;;;;;;;1.60;1.00;;;6.80;99.90;;;;;;5117413;28;20051;-79
2022/11/19 05:13:43;;;;;;;2.08;1.27;;;6.70;99.90;;;;;;5099165;28;20055;-79
2022/11/19 05:16:08;;;;;;;2.58;0.98;;;6.80;99.90;;;;;;5116863;28;20054;-78
2022/11/19 05:18:34;;;;;;;1.80;0.95;;;6.80;99.90;;;;;;5117659;28;20384;-78
2022/11/19 05:21:00;;;;;;;1.20;0.80;;;6.70;99.90;;;;;;5102602;28;20031;-78
2022/11/19 05:23:25;;;;;;;3.50;1.25;;;6.50;99.90;;;;;;5120722;28;20494;-78
2022/11/19 05:25:51;;;;;;;1.50;1.00;;;6.50;99.90;;;;;;5102555;28;20032;-78
2022/11/19 05:28:17;;;;;;;3.38;1.02;;;6.50;99.90;;;;;;5083242;28;20027;-78
2022/11/19 05:30:43;;;;;;;0.95;0.80;;;6.60;99.90;;;;;;5094283;28;20116;-80
2022/11/19 05:33:09;;;;;;;2.08;0.98;;;6.60;99.90;;;;;;5120654;28;20030;-79
2022/11/19 05:35:35;;;;;;;2.08;1.00;;;6.60;99.90;;;;;;5102141;28;20048;-80
2022/11/19 05:38:00;;;;;;;1.90;1.20;;;6.70;99.90;;;;;;5099249;28;20024;-79
2022/11/19 05:40:26;;;;;;;1.73;1.00;;;6.60;99.90;;;;;;5081766;28;20028;-77
2022/11/19 05:42:52;;;;;;;1.58;0.90;;;6.60;99.90;;;;;;5099648;28;20031;-78
2022/11/19 05:45:18;;;;;;;1.30;0.82;;;6.60;99.90;;;;;;5098226;28;20024;-80
2022/11/19 05:47:43;;;;;;;2.55;1.05;;;6.60;99.90;;;;;;5099679;28;20025;-80
2022/11/19 05:50:09;;;;;;;2.33;1.02;;;6.50;99.90;;;;;;5081763;28;20044;-80
2022/11/19 05:52:35;;;;;;;2.03;1.00;;;6.50;99.90;;;;;;5076372;28;20132;-80
2022/11/19 05:55:01;;;;;;;2.92;1.27;;;6.40;99.90;;;;;;5081887;28;20024;-80
2022/11/19 05:57:27;;;;;;;1.70;1.00;;;6.40;99.90;;;;;;5081418;28;20027;-81
2022/11/19 05:59:53;;;;;;;1.20;0.82;;;6.40;99.90;;;;;;5099680;28;20028;-81
2022/11/19 06:02:18;;;;;;;1.98;0.90;;;6.40;99.90;;;;;;5099829;28;20024;-79
2022/11/19 06:04:44;;;;;;;1.90;1.05;;;6.40;99.90;;;;;;5081701;28;20020;-79
2022/11/19 06:07:10;;;;;;;1.10;0.70;;;6.30;99.90;;;;;;5099581;28;20176;-79
2022/11/19 06:09:35;;;;;;;1.30;0.90;;;6.30;99.90;;;;;;5100012;28;20438;-79
2022/11/19 06:12:01;;;;;;;1.67;0.80;;;6.30;99.90;;;;;;5099486;28;20052;-79
2022/11/19 06:14:27;;;;;;;2.92;1.23;;;6.30;99.90;;;;;;5081611;28;20031;-79
2022/11/19 06:16:57;;;;;;;1.42;0.85;;;6.30;99.90;;;;;;5081254;28;20028;-79
2022/11/19 06:19:24;;;;;;;1.55;1.00;;;6.30;99.90;;;;;;5081582;28;20054;-79
2022/11/19 06:21:50;;;;;;;1.45;1.00;;;6.20;99.90;;;;;;5081361;28;20016;-79
2022/11/19 06:24:16;;;;;;;1.65;1.13;;;6.20;99.90;;;;;;5099008;28;20068;-78
2022/11/19 06:26:42;;;;;;;2.10;1.25;;;6.20;99.90;;;;;;5099152;28;20052;-80
2022/11/19 06:29:08;;;;;;;1.73;1.30;;;6.20;99.90;;;;;;5099164;28;20032;-80
2022/11/19 06:31:34;;;;;;;2.30;1.10;;;6.20;99.90;;;;;;5080182;28;20016;-81
2022/11/19 06:33:59;;;;;;;1.88;0.95;;;6.20;99.90;;;;;;5099168;28;20086;-80
2022/11/19 06:36:25;;;;;;;1.00;0.80;;;6.20;99.90;;;;;;5098941;28;20026;-80
2022/11/19 06:38:51;;;;;;;1.23;0.80;;;6.20;99.90;;;;;;5089101;28;20024;-80
2022/11/19 06:41:18;;;;;;;2.08;1.38;;;6.20;99.90;;;;;;5117991;28;20458;-79
2022/11/19 06:43:43;;;;;;;1.00;0.80;;;6.10;99.90;;;;;;5119598;28;20027;-79
2022/11/19 06:46:10;;;;;;;1.23;0.73;;;6.20;99.90;;;;;;5100939;28;20028;-79
2022/11/19 06:48:36;;;;;;;1.88;1.00;;;6.20;99.90;;;;;;5115784;28;20040;-80
2022/11/19 06:51:03;;;;;;;1.77;0.90;;;6.30;99.90;;;;;;5067228;28;20074;-80
2022/11/19 06:53:29;;;;;;;1.65;1.13;;;6.30;99.90;;;;;;5061779;28;20058;-80
2022/11/19 06:56:00;;;;;;;1.05;0.93;;;6.20;99.90;;;;;;5098187;28;20500;-80
2022/11/19 06:58:26;;;;;;;2.47;1.27;;;6.00;99.90;;;;;;5083535;28;20024;-80
2022/11/19 07:00:52;;;;;;;2.58;1.70;;;6.00;99.90;;;;;;5088020;28;20024;-80
2022/11/19 07:03:18;;;;;;;1.73;1.17;;;6.00;99.90;;;;;;5074533;28;20032;-79
2022/11/19 07:05:45;;;;;;;2.92;1.20;;;6.00;99.90;;;;;;5098596;28;20028;-79
2022/11/19 07:08:11;;;;;;;1.95;1.40;;;6.00;99.90;;;;;;5098080;28;20032;-79
2022/11/19 07:10:36;;;;;;;1.88;1.25;;;6.10;99.90;;;;;;5098557;28;20423;-79
2022/11/19 07:13:02;;;;;;;2.15;1.20;;;6.20;99.90;;;;;;5098555;28;20097;-79
2022/11/19 07:15:28;;;;;;;1.38;0.98;;;6.20;99.90;;;;;;5098164;28;20021;-79
2022/11/19 07:17:53;;;;;;;2.47;1.33;;;6.30;99.90;;;;;;5080361;28;20093;-79
2022/11/19 07:20:19;;;;;;;2.97;1.17;;;6.30;99.90;;;;;;5084629;28;20044;-79
2022/11/19 07:22:45;;;;;;;2.83;1.27;;;6.30;99.90;;;;;;5091439;28;20362;-79
2022/11/19 07:25:11;;;;;;;1.90;1.02;;;6.30;99.90;;;;;;5098318;28;20024;-83
2022/11/19 07:27:46;;;;;;;1.95;1.17;;;6.20;99.90;;;;;;5084585;28;20039;-83
2022/11/19 07:30:12;;;;;;;1.95;1.10;;;6.30;99.90;;;;;;5063437;28;20015;-77
2022/11/19 07:32:38;;;;;;;1.90;1.00;;;6.40;99.90;;;;;;5058417;28;20048;-79
2022/11/19 07:35:04;;;;;;;1.60;1.00;;;6.40;99.90;;;;;;5080856;28;20035;-79
2022/11/19 07:37:30;;;;;;;1.50;1.15;;;6.40;99.90;;;;;;5065955;28;20028;-79
2022/11/19 07:39:55;;;;;;;2.28;1.27;;;6.50;99.90;;;;;;5077090;28;20027;-80
2022/11/19 07:45:06;;;;;;;1.67;1.00;;;6.40;99.90;;;;;;5077401;28;20051;-78
2022/11/19 07:47:33;;;;;;;2.55;1.20;;;6.30;99.90;;;;;;5082316;28;20396;-78
2022/11/19 07:49:58;;;;;;;2.15;1.38;;;6.30;99.90;;;;;;5080528;28;20040;-77
2022/11/19 07:52:24;;;;;;;1.40;0.90;;;6.30;99.90;;;;;;5067473;28;20049;-78
2022/11/19 07:54:50;;;;;;;2.85;1.25;;;6.30;99.90;;;;;;5077131;28;20027;-77
2022/11/19 07:57:15;;;;;;;2.70;1.50;;;6.30;99.90;;;;;;5077275;28;20442;-77
2022/11/19 07:59:41;;;;;;;1.55;1.00;;;6.20;99.90;;;;;;5079485;28;20036;-77
2022/11/19 08:02:10;;;;;;;1.58;1.02;;;6.30;99.90;;;;;;5097299;28;20021;-77
2022/11/19 08:04:36;;;;;;;1.60;1.15;;;6.30;99.90;;;;;;5087967;28;20046;-77
2022/11/19 08:07:01;;;;;;;3.70;1.67;;;6.30;99.90;;;;;;5081569;28;20404;-78
2022/11/19 08:09:27;;;;;;;2.03;1.48;;;6.30;99.90;;;;;;5097485;28;20024;-77
2022/11/19 08:11:52;;;;;;;2.15;1.38;;;6.30;99.90;;;;;;5097364;28;20032;-81
2022/11/19 08:14:24;;;;;;;1.67;1.17;;;6.40;99.90;;;;;;5097394;28;20035;-82
2022/11/19 08:19:34;;;;;;;2.53;1.20;;;6.40;99.90;;;;;;5097550;28;20400;-80
2022/11/19 08:22:09;;;;;;;3.10;1.50;;;6.40;99.90;;;;;;5079067;28;20024;-80
2022/11/19 08:24:39;;;;;;;2.60;1.48;;;6.40;99.90;;;;;;5095017;28;20048;-78
2022/11/19 08:27:10;;;;;;;2.13;1.25;;;6.40;99.90;;;;;;5067677;28;20040;-80
2022/11/19 08:29:35;;;;;;;1.85;1.23;;;6.50;99.90;;;;;;5075018;28;20029;-78
2022/11/19 08:32:11;;;;;;;;;;;;;;;;;;;;;
2022/11/19 08:34:39;;;;;;;1.85;1.35;;;6.70;99.90;;;;;;5070375;28;20023;-81
2022/11/19 08:37:05;;;;;;;2.20;1.20;;;6.80;99.90;;;;;;5087522;28;20032;-84
2022/11/19 08:39:30;;;;;;;4.25;1.25;;;6.90;99.90;;;;;;5073425;28;20014;-80
2022/11/19 08:44:40;;;;;;;2.03;1.23;;;6.80;99.90;;;;;;5096348;28;20024;-87
2022/11/19 08:47:06;;;;;;;1.52;1.00;;;6.70;99.90;;;;;;5079146;28;20028;-82
2022/11/19 08:49:31;;;;;;;2.17;1.30;;;6.70;99.90;;;;;;5070959;28;20044;-78
2022/11/19 08:51:57;;;;;;;3.50;2.20;;;6.80;99.90;;;;;;5084543;28;20025;-89
2022/11/19 08:54:23;;;;;;;4.07;1.75;;;6.80;99.90;;;;;;5083604;28;20028;-78
2022/11/19 08:56:49;;;;;;;3.40;1.60;;;6.80;99.90;;;;;;5086349;28;20020;-79
2022/11/19 08:59:14;;;;;;;2.95;1.65;;;6.80;99.90;;;;;;5070550;28;20024;-80
2022/11/19 09:01:40;;;;;;;2.75;1.60;;;6.80;99.90;;;;;;5100441;28;20104;-78
2022/11/19 09:04:05;;;;;;;4.70;1.60;;;6.90;99.90;;;;;;5078666;28;20458;-79
2022/11/19 09:06:35;;;;;;;2.42;1.30;;;7.10;99.90;;;;;;5076417;28;20054;-78
2022/11/19 09:09:20;;;;;;;2.45;1.48;;;7.10;99.90;;;;;;5100661;28;20481;-85
2022/11/19 09:11:49;;;;;;;1.80;1.13;;;7.10;99.90;;;;;;5058834;28;20064;-87
2022/11/19 09:14:15;;;;;;;2.67;1.48;;;7.20;99.90;;;;;;5073848;28;20080;-80
2022/11/19 09:16:41;;;;;;;2.00;1.27;;;7.20;99.90;;;;;;5102066;28;20080;-84
2022/11/19 09:19:08;;;;;;;2.28;1.40;;;7.30;99.90;;;;;;5100777;28;20020;-78
2022/11/19 09:21:33;;;;;;;2.60;1.20;;;7.30;99.90;;;;;;5100308;28;20145;-74
2022/11/19 09:23:59;;;;;;;3.28;1.30;;;7.40;99.90;;;;;;5084833;28;20059;-75
2022/11/19 09:26:25;;;;;;;3.60;1.73;;;7.40;99.90;;;;;;5097213;28;20035;-75
2022/11/19 09:28:50;;;;;;;2.90;1.52;;;7.50;99.90;;;;;;5056261;28;20059;-76
2022/11/19 09:31:18;;;;;;;5.68;2.50;;;7.50;99.90;;;;;;5031618;28;20020;-75
2022/11/19 09:33:50;;;;;;;6.22;2.95;;;7.50;99.90;;;;;;5078413;28;20550;-75
2022/11/19 09:36:17;;;;;;;7.68;3.67;;;7.50;99.90;;;;;;5031662;28;20029;-72
2022/11/19 09:38:43;;;;;;;5.53;2.70;;;7.60;99.90;;;;;;5041107;28;20020;-75
2022/11/19 09:41:44;;;;;;;9.00;4.43;;;7.60;99.90;;;;;;5081524;28;20393;-75
2022/11/19 09:44:31;;;;;;;6.28;2.47;;;7.60;99.90;;;;;;5058895;28;20119;-76
2022/11/19 09:47:16;;;;;;;3.67;1.58;;;7.70;99.90;;;;;;5099819;28;20020;-77
2022/11/19 09:50:04;;;;;;;5.45;2.47;;;7.70;99.90;;;;;;5090445;28;20056;-71
2022/11/19 09:52:35;;;;;;;7.68;3.55;;;7.80;99.90;;;;;;5087666;28;20504;-76
2022/11/19 09:55:02;;;;;;;3.40;2.10;;;7.90;99.90;;;;;;5074174;28;20034;-80
2022/11/19 09:57:33;;;;;;;10.40;4.35;;;7.90;99.90;;;;;;5081253;28;20024;-78
2022/11/19 10:00:01;;;;;;;8.00;4.45;;;8.00;99.90;;;;;;5099659;28;20058;-77
2022/11/19 10:02:27;;;;;;;9.43;4.03;;;8.00;99.90;;;;;;5081376;28;20020;-73
2022/11/19 10:04:52;;;;;;;8.50;3.95;;;8.10;99.90;;;;;;5098935;28;20105;-80
2022/11/19 10:07:34;;;;;;;5.25;2.53;;;8.10;99.90;;;;;;5083349;28;20020;-79
2022/11/19 10:10:02;;;;;;;4.85;2.42;;;8.20;99.90;;;;;;5092882;28;20038;-77
2022/11/19 10:12:40;;;;;;;4.30;2.25;;;8.30;99.90;;;;;;5083347;28;20029;-77
2022/11/19 10:15:24;;;;;;;2.95;1.70;;;8.30;99.90;;;;;;5046255;28;20032;-72
2022/11/19 10:18:12;;;;;;;4.82;2.10;;;8.40;99.90;;;;;;5061190;28;20021;-77
2022/11/19 10:20:48;;;;;;;3.85;1.67;;;8.50;99.90;;;;;;5081343;28;20024;-78
2022/11/19 10:23:41;;;;;;;2.22;1.45;;;8.50;99.90;;;;;;5095274;28;20365;-83
2022/11/19 10:26:15;;;;;;;4.00;1.45;;;8.60;99.90;;;;;;5080983;28;20062;-82
2022/11/19 10:28:50;;;;;;;2.90;1.30;;;8.60;99.90;;;;;;5092644;28;20529;-75
2022/11/19 10:31:31;;;;;;;3.08;1.33;;;8.60;99.90;;;;;;5098622;28;20393;-74
2022/11/19 10:34:22;;;;;;;1.92;1.08;;;8.70;99.90;;;;;;5099072;28;20051;-81
2022/11/19 10:36:58;;;;;;;4.03;1.27;;;8.70;99.90;;;;;;5080974;28;20028;-83
2022/11/19 10:39:31;;;;;;;2.30;1.27;;;8.80;99.90;;;;;;5046784;28;20523;-72
2022/11/19 10:42:07;;;;;;;1.95;1.20;;;8.80;99.90;;;;;;5072393;28;20031;-83
2022/11/19 10:44:42;;;;;;;2.33;1.25;;;8.90;99.90;;;;;;5098856;28;20035;-76
2022/11/19 10:47:36;;;;;;;2.15;1.48;;;8.90;99.90;;;;;;5098676;28;20016;-80
2022/11/19 10:50:02;;;;;;;2.55;1.00;;;9.00;99.90;;;;;;5086664;28;20516;-86
2022/11/19 10:52:36;;;;;;;2.08;1.05;;;9.00;99.90;;;;;;5072755;28;20052;-77
2022/11/19 10:55:25;;;;;;;2.60;1.30;;;9.10;99.90;;;;;;5072851;28;20024;-77
2022/11/19 10:58:02;;;;;;;3.35;1.55;;;9.10;99.90;;;;;;5097788;28;20030;-77
2022/11/19 11:00:28;;;;;;;2.75;1.60;;;9.20;99.90;;;;;;5079686;28;20146;-77
2022/11/19 11:03:01;;;;;;;3.95;1.95;;;9.20;99.90;;;;;;5098688;28;20043;-77
2022/11/19 11:05:28;;;;;;;2.90;1.65;;;9.20;99.90;;;;;;5098392;28;20020;-77
2022/11/19 11:07:56;;;;;;;5.82;1.83;;;9.30;99.90;;;;;;5068113;28;20030;-76
2022/11/19 11:10:29;;;;;;;4.95;1.67;;;9.30;99.90;;;;;;5078072;28;20032;-76
2022/11/19 11:15:49;;;;;;;4.13;1.88;;;9.40;99.90;;;;;;5098009;28;20404;-77
2022/11/19 11:18:16;;;;;;;2.28;1.50;;;9.40;99.90;;;;;;5097704;28;20024;-76
2022/11/19 11:20:48;;;;;;;3.35;1.90;;;9.40;99.90;;;;;;5094517;28;20024;-76
2022/11/19 11:23:39;;;;;;;3.13;1.38;;;9.50;99.90;;;;;;5097703;28;20017;-76
2022/11/19 11:26:08;;;;;;;3.38;1.58;;;9.50;99.90;;;;;;5078867;28;20030;-77
2022/11/19 11:28:34;;;;;;;4.63;1.63;;;9.50;99.90;;;;;;5089189;28;20475;-78
2022/11/19 11:31:05;;;;;;;4.28;2.17;;;9.50;99.90;;;;;;5079589;28;20062;-77
2022/11/19 11:33:37;;;;;;;5.10;1.52;;;9.60;99.90;;;;;;5098003;28;20106;-77
2022/11/19 11:36:14;;;;;;;4.30;1.60;;;9.70;99.90;;;;;;5097848;28;20028;-76
2022/11/19 11:38:45;;;;;;;3.30;1.85;;;9.80;99.90;;;;;;5053989;28;20025;-77
2022/11/19 11:41:32;;;;;;;3.08;1.80;;;9.80;99.90;;;;;;5094444;28;20023;-78
2022/11/19 11:44:01;;;;;;;3.13;1.60;;;9.80;99.90;;;;;;5079453;28;20480;-78
2022/11/19 11:46:51;;;;;;;3.90;1.55;;;9.90;99.90;;;;;;5097618;28;20481;-78
2022/11/19 11:49:34;;;;;;;2.95;1.75;;;10.00;99.90;;;;;;5091861;28;20060;-78
2022/11/19 11:52:19;;;;;;;3.53;1.63;;;10.00;99.90;;;;;;5084422;28;20048;-77
2022/11/19 11:55:07;;;;;;;3.70;1.83;;;10.10;99.90;;;;;;5087974;28;20488;-78
2022/11/19 11:57:48;;;;;;;4.97;1.80;;;10.10;99.90;;;;;;5079122;28;20028;-78
2022/11/19 12:00:41;;;;;;;3.00;1.25;;;10.20;99.90;;;;;;5097349;28;20107;-77
2022/11/19 12:03:15;;;;;;;4.22;1.65;;;10.20;99.90;;;;;;5097988;28;20019;-78
2022/11/19 12:06:05;;;;;;;5.03;1.70;;;10.30;99.90;;;;;;5079405;28;20362;-77
2022/11/19 12:08:51;;;;;;;3.40;2.00;;;10.40;99.90;;;;;;5097127;28;20511;-77
2022/11/19 12:11:52;;;;;;;3.17;1.70;;;10.50;99.90;;;;;;5097175;28;20046;-78
2022/11/19 12:14:38;;;;;;;3.45;1.38;;;10.60;99.90;;;;;;5075740;28;20019;-79
2022/11/19 12:17:09;;;;;;;3.30;1.40;;;10.60;99.90;;;;;;5076375;28;20115;-79
2022/11/19 12:20:15;;;;;;;2.83;1.23;;;10.60;99.90;;;;;;5065055;28;20400;-79
2022/11/19 12:22:47;;;;;;;3.42;1.10;;;10.60;99.90;;;;;;5061737;28;20040;-78
2022/11/19 12:25:52;;;;;;;2.03;0.90;;;10.50;99.90;;;;;;5083391;28;20137;-79
2022/11/19 12:28:30;;;;;;;1.73;0.80;;;10.50;99.90;;;;;;5077491;28;20061;-79
2022/11/19 12:31:04;;;;;;;2.20;1.13;;;10.60;99.90;;;;;;5088721;28;20047;-80
2022/11/19 12:33:54;;;;;;;2.20;1.02;;;10.60;99.90;;;;;;5072528;28;20496;-80
2022/11/19 12:36:45;;;;;;;6.10;1.17;;;10.60;99.90;;;;;;5084828;28;20481;-79
2022/11/19 12:39:54;;;;;;;2.53;0.90;;;10.60;99.90;;;;;;5082611;28;20028;-78
2022/11/19 12:42:44;;;;;;;1.85;0.80;;;10.60;99.90;;;;;;4997324;28;20860;-79
2022/11/19 12:45:35;;;;;;;4.53;1.27;;;10.70;99.90;;;;;;5088661;28;20358;-79
2022/11/19 12:48:28;;;;;;;2.75;1.02;;;10.80;99.90;;;;;;5086801;28;20030;-78
2022/11/19 12:51:06;;;;;;;2.50;0.60;;;10.80;99.90;;;;;;5065946;28;20075;-76
2022/11/19 12:53:53;;;;;;;1.98;0.43;;;10.90;99.90;;;;;;5080297;28;20032;-77
2022/11/19 12:56:42;;;;;;;3.22;0.50;;;10.90;99.90;;;;;;5061167;28;20110;-79
2022/11/19 12:59:33;;;;;;;2.40;0.43;;;10.90;99.90;;;;;;5085104;28;20017;-76
2022/11/19 13:02:01;;;;;;;2.72;0.50;;;11.00;99.90;;;;;;5064945;28;20479;-75
2022/11/19 13:04:45;;;;;;;1.98;0.50;;;10.90;99.90;;;;;;5089328;28;20095;-75
2022/11/19 13:07:31;;;;;;;1.63;0.50;;;10.90;99.90;;;;;;5067387;28;20032;-78
2022/11/19 13:10:06;;;;;;;1.95;0.60;;;10.80;99.90;;;;;;5083321;28;20393;-76
2022/11/19 13:12:40;;;;;;;1.88;0.60;;;10.80;99.90;;;;;;5079170;28;20106;-76
2022/11/19 13:15:25;;;;;;;3.05;0.65;;;10.70;99.90;;;;;;5078679;28;20032;-76
2022/11/19 13:17:55;;;;;;;1.67;0.63;;;10.70;99.90;;;;;;5061144;28;20281;-76
2022/11/19 13:20:30;;;;;;;2.00;0.50;;;10.60;99.90;;;;;;5061032;28;20024;-77
2022/11/19 13:23:03;;;;;;;0.63;0.32;;;10.60;99.90;;;;;;5094612;28;20031;-78
2022/11/19 13:25:38;;;;;;;2.03;0.47;;;10.50;99.90;;;;;;5063156;28;20054;-78
2022/11/19 13:28:14;;;;;;;2.20;0.60;;;10.50;99.90;;;;;;5083147;28;20032;-76
2022/11/19 13:30:45;;;;;;;1.25;0.40;;;10.40;99.90;;;;;;5073957;28;20020;-77
2022/11/19 13:33:19;;;;;;;2.97;0.70;;;10.40;99.90;;;;;;5075654;28;20031;-80
2022/11/19 13:36:04;;;;;;;2.03;0.77;;;10.40;99.90;;;;;;5079956;28;20029;-76
2022/11/19 13:38:43;;;;;;;3.50;0.80;;;10.30;99.90;;;;;;5075121;28;20024;-77
2022/11/19 13:41:24;;;;;;;3.80;0.82;;;10.30;99.90;;;;;;5079667;28;20051;-76